sensor_id;sensor_type;location;lat;lon;timestamp;temperature;humidity
27544;DHT22;17996;51.056;3.656;2024-02-15T00:02:23;13.60;99.90
27544;DHT22;17996;51.056;3.656;2024-02-15T00:04:49;13.60;99.90
27544;DHT22;17996;51.056;3.656;2024-02-15T00:07:15;13.50;99.90
27544;DHT22;17996;51.056;3.656;2024-02-15T00:09:41;13.50;99.90
27544;DHT22;17996;51.056;3.656;2024-02-15T00:12:07;13.50;99.90
27544;DHT22;17996;51.056;3.656;2024-02-15T00:14:33;13.50;99.90
27544;DHT22;17996;51.056;3.656;2024-02-15T00:16:59;13.50;99.90
27544;DHT22;17996;51.056;3.656;2024-02-15T00:19:25;13.50;99.90
27544;DHT22;17996;51.056;3.656;2024-02-15T00:21:52;13.50;99.90
27544;DHT22;17996;51.056;3.656;2024-02-15T00:24:17;13.50;99.90
27544;DHT22;17996;51.056;3.656;2024-02-15T00:26:43;13.50;99.90
27544;DHT22;17996;51.056;3.656;2024-02-15T00:29:09;13.50;99.90
27544;DHT22;17996;51.056;3.656;2024-02-15T00:31:35;13.50;99.90
27544;DHT22;17996;51.056;3.656;2024-02-15T00:34:01;13.60;99.90
27544;DHT22;17996;51.056;3.656;2024-02-15T00:36:30;13.60;99.90
27544;DHT22;17996;51.056;3.656;2024-02-15T00:38:56;13.60;99.90
27544;DHT22;17996;51.056;3.656;2024-02-15T00:41:21;13.60;99.90
27544;DHT22;17996;51.056;3.656;2024-02-15T00:43:47;13.60;99.90
27544;DHT22;17996;51.056;3.656;2024-02-15T00:46:14;13.70;99.90
27544;DHT22;17996;51.056;3.656;2024-02-15T00:48:39;13.70;99.90
27544;DHT22;17996;51.056;3.656;2024-02-15T00:51:06;13.70;99.90
27544;DHT22;17996;51.056;3.656;2024-02-15T00:53:32;13.80;99.90
27544;DHT22;17996;51.056;3.656;2024-02-15T00:55:58;13.80;99.90
27544;DHT22;17996;51.056;3.656;2024-02-15T00:58:24;13.80;99.90
27544;DHT22;17996;51.056;3.656;2024-02-15T01:00:53;13.80;99.90
27544;DHT22;17996;51.056;3.656;2024-02-15T01:03:19;13.80;99.90
27544;DHT22;17996;51.056;3.656;2024-02-15T01:05:45;13.90;99.90
27544;DHT22;17996;51.056;3.656;2024-02-15T01:08:11;13.80;99.90
27544;DHT22;17996;51.056;3.656;2024-02-15T01:10:37;13.90;99.90
27544;DHT22;17996;51.056;3.656;2024-02-15T01:13:03;13.80;99.90
27544;DHT22;17996;51.056;3.656;2024-02-15T01:15:29;13.90;99.90
27544;DHT22;17996;51.056;3.656;2024-02-15T01:17:55;13.90;99.90
27544;DHT22;17996;51.056;3.656;2024-02-15T01:20:21;13.90;99.90
27544;DHT22;17996;51.056;3.656;2024-02-15T01:22:47;13.90;99.90
27544;DHT22;17996;51.056;3.656;2024-02-15T01:25:13;14.00;99.90
27544;DHT22;17996;51.056;3.656;2024-02-15T01:27:41;14.00;99.90
27544;DHT22;17996;51.056;3.656;2024-02-15T01:30:07;14.00;99.90
27544;DHT22;17996;51.056;3.656;2024-02-15T01:32:34;14.00;99.90
27544;DHT22;17996;51.056;3.656;2024-02-15T01:35:00;14.00;99.90
27544;DHT22;17996;51.056;3.656;2024-02-15T01:37:26;14.00;99.90
27544;DHT22;17996;51.056;3.656;2024-02-15T01:39:53;14.00;99.90
27544;DHT22;17996;51.056;3.656;2024-02-15T01:42:19;14.00;99.90
27544;DHT22;17996;51.056;3.656;2024-02-15T01:44:45;14.00;99.90
27544;DHT22;17996;51.056;3.656;2024-02-15T01:47:13;13.90;99.90
27544;DHT22;17996;51.056;3.656;2024-02-15T01:49:40;13.90;99.90
27544;DHT22;17996;51.056;3.656;2024-02-15T01:52:07;13.90;99.90
27544;DHT22;17996;51.056;3.656;2024-02-15T01:54:36;13.90;99.90
27544;DHT22;17996;51.056;3.656;2024-02-15T01:57:04;13.90;99.90
27544;DHT22;17996;51.056;3.656;2024-02-15T01:59:32;13.90;99.90
27544;DHT22;17996;51.056;3.656;2024-02-15T02:01:57;13.90;99.90
27544;DHT22;17996;51.056;3.656;2024-02-15T02:04:23;13.90;99.90
27544;DHT22;17996;51.056;3.656;2024-02-15T02:06:49;13.90;99.90
27544;DHT22;17996;51.056;3.656;2024-02-15T02:09:15;13.80;99.90
27544;DHT22;17996;51.056;3.656;2024-02-15T02:11:43;13.80;99.90
27544;DHT22;17996;51.056;3.656;2024-02-15T02:14:11;13.80;99.90
27544;DHT22;17996;51.056;3.656;2024-02-15T02:16:37;13.80;99.90
27544;DHT22;17996;51.056;3.656;2024-02-15T02:19:05;13.80;99.90
27544;DHT22;17996;51.056;3.656;2024-02-15T02:21:35;13.90;99.90
27544;DHT22;17996;51.056;3.656;2024-02-15T02:24:13;13.90;99.90
27544;DHT22;17996;51.056;3.656;2024-02-15T02:26:40;13.90;99.90
27544;DHT22;17996;51.056;3.656;2024-02-15T02:29:06;13.90;99.90
27544;DHT22;17996;51.056;3.656;2024-02-15T02:31:35;13.90;99.90
27544;DHT22;17996;51.056;3.656;2024-02-15T02:34:01;13.90;99.90
27544;DHT22;17996;51.056;3.656;2024-02-15T02:36:27;13.90;99.90
27544;DHT22;17996;51.056;3.656;2024-02-15T02:38:55;13.90;99.90
27544;DHT22;17996;51.056;3.656;2024-02-15T02:41:20;13.90;99.90
27544;DHT22;17996;51.056;3.656;2024-02-15T02:43:47;13.80;99.90
27544;DHT22;17996;51.056;3.656;2024-02-15T02:46:12;13.80;99.90
27544;DHT22;17996;51.056;3.656;2024-02-15T02:48:39;13.90;99.90
27544;DHT22;17996;51.056;3.656;2024-02-15T02:51:06;13.90;99.90
27544;DHT22;17996;51.056;3.656;2024-02-15T02:53:33;13.90;99.90
27544;DHT22;17996;51.056;3.656;2024-02-15T02:55:59;13.90;99.90
27544;DHT22;17996;51.056;3.656;2024-02-15T02:58:24;13.90;99.90
27544;DHT22;17996;51.056;3.656;2024-02-15T03:00:51;13.90;99.90
27544;DHT22;17996;51.056;3.656;2024-02-15T03:03:17;13.90;99.90
27544;DHT22;17996;51.056;3.656;2024-02-15T03:05:44;13.80;99.90
27544;DHT22;17996;51.056;3.656;2024-02-15T03:08:14;13.90;99.90
27544;DHT22;17996;51.056;3.656;2024-02-15T03:10:40;13.80;99.90
27544;DHT22;17996;51.056;3.656;2024-02-15T03:13:06;13.90;99.90
27544;DHT22;17996;51.056;3.656;2024-02-15T03:15:35;13.80;99.90
27544;DHT22;17996;51.056;3.656;2024-02-15T03:18:02;13.80;99.90
27544;DHT22;17996;51.056;3.656;2024-02-15T03:20:39;13.80;99.90
27544;DHT22;17996;51.056;3.656;2024-02-15T03:23:05;13.80;99.90
27544;DHT22;17996;51.056;3.656;2024-02-15T03:25:30;13.80;99.90
27544;DHT22;17996;51.056;3.656;2024-02-15T03:27:57;13.80;99.90
27544;DHT22;17996;51.056;3.656;2024-02-15T03:30:25;13.80;99.90
27544;DHT22;17996;51.056;3.656;2024-02-15T03:32:55;13.80;99.90
27544;DHT22;17996;51.056;3.656;2024-02-15T03:35:22;13.80;99.90
27544;DHT22;17996;51.056;3.656;2024-02-15T03:37:48;13.80;99.90
27544;DHT22;17996;51.056;3.656;2024-02-15T03:40:18;13.80;99.90
27544;DHT22;17996;51.056;3.656;2024-02-15T03:42:44;13.90;99.90
27544;DHT22;17996;51.056;3.656;2024-02-15T03:45:10;13.90;99.90
27544;DHT22;17996;51.056;3.656;2024-02-15T03:47:37;13.80;99.90
27544;DHT22;17996;51.056;3.656;2024-02-15T03:50:06;13.90;99.90
27544;DHT22;17996;51.056;3.656;2024-02-15T03:52:38;13.80;99.90
27544;DHT22;17996;51.056;3.656;2024-02-15T03:55:04;13.80;99.90
27544;DHT22;17996;51.056;3.656;2024-02-15T03:57:31;13.80;99.90
27544;DHT22;17996;51.056;3.656;2024-02-15T03:59:58;13.80;99.90
27544;DHT22;17996;51.056;3.656;2024-02-15T04:02:25;13.80;99.90
27544;DHT22;17996;51.056;3.656;2024-02-15T04:04:56;13.80;99.90
27544;DHT22;17996;51.056;3.656;2024-02-15T04:07:22;13.80;99.90
27544;DHT22;17996;51.056;3.656;2024-02-15T04:09:51;13.90;99.90
27544;DHT22;17996;51.056;3.656;2024-02-15T04:12:17;13.90;99.90
27544;DHT22;17996;51.056;3.656;2024-02-15T04:14:46;13.90;99.90
27544;DHT22;17996;51.056;3.656;2024-02-15T04:17:12;13.90;99.90
27544;DHT22;17996;51.056;3.656;2024-02-15T04:19:45;13.90;99.90
27544;DHT22;17996;51.056;3.656;2024-02-15T04:22:12;13.80;99.90
27544;DHT22;17996;51.056;3.656;2024-02-15T04:24:38;13.80;99.90
27544;DHT22;17996;51.056;3.656;2024-02-15T04:27:06;13.80;99.90
27544;DHT22;17996;51.056;3.656;2024-02-15T04:29:34;13.80;99.90
27544;DHT22;17996;51.056;3.656;2024-02-15T04:32:00;13.80;99.90
27544;DHT22;17996;51.056;3.656;2024-02-15T04:34:26;13.80;99.90
27544;DHT22;17996;51.056;3.656;2024-02-15T04:36:51;13.90;99.90
27544;DHT22;17996;51.056;3.656;2024-02-15T04:39:21;13.80;99.90
27544;DHT22;17996;51.056;3.656;2024-02-15T04:41:53;13.90;99.90
27544;DHT22;17996;51.056;3.656;2024-02-15T04:44:21;13.80;99.90
27544;DHT22;17996;51.056;3.656;2024-02-15T04:46:47;13.80;99.90
27544;DHT22;17996;51.056;3.656;2024-02-15T04:49:15;13.80;99.90
27544;DHT22;17996;51.056;3.656;2024-02-15T04:51:41;13.90;99.90
27544;DHT22;17996;51.056;3.656;2024-02-15T04:54:07;13.80;99.90
27544;DHT22;17996;51.056;3.656;2024-02-15T04:56:34;13.80;99.90
27544;DHT22;17996;51.056;3.656;2024-02-15T04:59:02;13.80;99.90
27544;DHT22;17996;51.056;3.656;2024-02-15T05:01:27;13.90;99.90
27544;DHT22;17996;51.056;3.656;2024-02-15T05:03:55;13.90;99.90
27544;DHT22;17996;51.056;3.656;2024-02-15T05:06:21;13.90;99.90
27544;DHT22;17996;51.056;3.656;2024-02-15T05:08:47;13.90;99.90
27544;DHT22;17996;51.056;3.656;2024-02-15T05:11:13;13.80;99.90
27544;DHT22;17996;51.056;3.656;2024-02-15T05:13:45;13.80;99.90
27544;DHT22;17996;51.056;3.656;2024-02-15T05:16:12;13.80;99.90
27544;DHT22;17996;51.056;3.656;2024-02-15T05:18:38;13.80;99.90
27544;DHT22;17996;51.056;3.656;2024-02-15T05:21:06;13.80;99.90
27544;DHT22;17996;51.056;3.656;2024-02-15T05:23:35;13.90;99.90
27544;DHT22;17996;51.056;3.656;2024-02-15T05:26:02;13.90;99.90
27544;DHT22;17996;51.056;3.656;2024-02-15T05:28:29;13.90;99.90
27544;DHT22;17996;51.056;3.656;2024-02-15T05:33:40;13.90;99.90
27544;DHT22;17996;51.056;3.656;2024-02-15T05:36:13;13.80;99.90
27544;DHT22;17996;51.056;3.656;2024-02-15T05:38:40;13.90;99.90
27544;DHT22;17996;51.056;3.656;2024-02-15T05:41:07;13.90;99.90
27544;DHT22;17996;51.056;3.656;2024-02-15T05:43:37;13.90;99.90
27544;DHT22;17996;51.056;3.656;2024-02-15T05:46:05;13.90;99.90
27544;DHT22;17996;51.056;3.656;2024-02-15T05:48:32;13.90;99.90
27544;DHT22;17996;51.056;3.656;2024-02-15T05:51:01;13.90;99.90
27544;DHT22;17996;51.056;3.656;2024-02-15T05:53:27;13.90;99.90
27544;DHT22;17996;51.056;3.656;2024-02-15T05:55:55;13.90;99.90
27544;DHT22;17996;51.056;3.656;2024-02-15T05:58:22;13.90;99.90
27544;DHT22;17996;51.056;3.656;2024-02-15T06:00:48;13.80;99.90
27544;DHT22;17996;51.056;3.656;2024-02-15T06:03:17;13.90;99.90
27544;DHT22;17996;51.056;3.656;2024-02-15T06:05:43;13.80;99.90
27544;DHT22;17996;51.056;3.656;2024-02-15T06:08:13;13.80;99.90
27544;DHT22;17996;51.056;3.656;2024-02-15T06:10:40;13.80;99.90
27544;DHT22;17996;51.056;3.656;2024-02-15T06:13:06;13.80;99.90
27544;DHT22;17996;51.056;3.656;2024-02-15T06:15:35;13.80;99.90
27544;DHT22;17996;51.056;3.656;2024-02-15T06:18:02;13.80;99.90
27544;DHT22;17996;51.056;3.656;2024-02-15T06:20:29;13.80;99.90
27544;DHT22;17996;51.056;3.656;2024-02-15T06:22:57;13.90;99.90
27544;DHT22;17996;51.056;3.656;2024-02-15T06:25:23;13.90;99.90
27544;DHT22;17996;51.056;3.656;2024-02-15T06:27:48;13.80;99.90
27544;DHT22;17996;51.056;3.656;2024-02-15T06:30:16;13.90;99.90
27544;DHT22;17996;51.056;3.656;2024-02-15T06:33:01;13.90;99.90
27544;DHT22;17996;51.056;3.656;2024-02-15T06:35:45;13.90;99.90
27544;DHT22;17996;51.056;3.656;2024-02-15T06:38:29;13.90;99.90
27544;DHT22;17996;51.056;3.656;2024-02-15T06:41:13;13.90;99.90
27544;DHT22;17996;51.056;3.656;2024-02-15T06:43:40;13.90;99.90
27544;DHT22;17996;51.056;3.656;2024-02-15T06:46:07;13.90;99.90
27544;DHT22;17996;51.056;3.656;2024-02-15T06:48:34;13.90;99.90
27544;DHT22;17996;51.056;3.656;2024-02-15T06:51:06;13.90;99.90
27544;DHT22;17996;51.056;3.656;2024-02-15T06:53:33;13.90;99.90
27544;DHT22;17996;51.056;3.656;2024-02-15T06:55:59;13.90;99.90
27544;DHT22;17996;51.056;3.656;2024-02-15T06:58:26;14.00;99.90
27544;DHT22;17996;51.056;3.656;2024-02-15T07:00:52;14.00;99.90
27544;DHT22;17996;51.056;3.656;2024-02-15T07:03:21;14.00;99.90
27544;DHT22;17996;51.056;3.656;2024-02-15T07:05:50;14.00;99.90
27544;DHT22;17996;51.056;3.656;2024-02-15T07:08:16;14.00;99.90
27544;DHT22;17996;51.056;3.656;2024-02-15T07:10:41;14.00;99.90
27544;DHT22;17996;51.056;3.656;2024-02-15T07:13:08;14.00;99.90
27544;DHT22;17996;51.056;3.656;2024-02-15T07:15:36;14.00;99.90
27544;DHT22;17996;51.056;3.656;2024-02-15T07:18:07;14.00;99.90
27544;DHT22;17996;51.056;3.656;2024-02-15T07:20:33;14.00;99.90
27544;DHT22;17996;51.056;3.656;2024-02-15T07:22:59;13.90;99.90
27544;DHT22;17996;51.056;3.656;2024-02-15T07:25:25;13.90;99.90
27544;DHT22;17996;51.056;3.656;2024-02-15T07:27:51;13.90;99.90
27544;DHT22;17996;51.056;3.656;2024-02-15T07:30:20;13.80;99.90
27544;DHT22;17996;51.056;3.656;2024-02-15T07:32:46;13.80;99.90
27544;DHT22;17996;51.056;3.656;2024-02-15T07:35:14;13.80;99.90
27544;DHT22;17996;51.056;3.656;2024-02-15T07:38:03;13.70;99.90
27544;DHT22;17996;51.056;3.656;2024-02-15T07:40:31;13.70;99.90
27544;DHT22;17996;51.056;3.656;2024-02-15T07:43:00;13.70;99.90
27544;DHT22;17996;51.056;3.656;2024-02-15T07:45:30;13.70;99.90
27544;DHT22;17996;51.056;3.656;2024-02-15T07:47:57;13.70;99.90
27544;DHT22;17996;51.056;3.656;2024-02-15T07:50:23;13.60;99.90
27544;DHT22;17996;51.056;3.656;2024-02-15T07:52:49;13.60;99.90
27544;DHT22;17996;51.056;3.656;2024-02-15T07:55:16;13.60;99.90
27544;DHT22;17996;51.056;3.656;2024-02-15T07:57:42;13.60;99.90
27544;DHT22;17996;51.056;3.656;2024-02-15T08:00:27;13.60;99.90
27544;DHT22;17996;51.056;3.656;2024-02-15T08:02:53;13.60;99.90
27544;DHT22;17996;51.056;3.656;2024-02-15T08:05:20;13.60;99.90
27544;DHT22;17996;51.056;3.656;2024-02-15T08:07:46;13.70;99.90
27544;DHT22;17996;51.056;3.656;2024-02-15T08:10:15;13.70;99.90
27544;DHT22;17996;51.056;3.656;2024-02-15T08:12:45;13.70;99.90
27544;DHT22;17996;51.056;3.656;2024-02-15T08:15:12;13.70;99.90
27544;DHT22;17996;51.056;3.656;2024-02-15T08:17:42;13.80;99.90
27544;DHT22;17996;51.056;3.656;2024-02-15T08:20:12;13.80;99.90
27544;DHT22;17996;51.056;3.656;2024-02-15T08:22:39;13.90;99.90
27544;DHT22;17996;51.056;3.656;2024-02-15T08:25:09;13.90;99.90
27544;DHT22;17996;51.056;3.656;2024-02-15T08:27:39;13.90;99.90
27544;DHT22;17996;51.056;3.656;2024-02-15T08:30:12;13.90;99.90
27544;DHT22;17996;51.056;3.656;2024-02-15T08:32:41;14.00;99.90
27544;DHT22;17996;51.056;3.656;2024-02-15T08:35:11;14.00;99.90
27544;DHT22;17996;51.056;3.656;2024-02-15T08:37:38;14.00;99.90
27544;DHT22;17996;51.056;3.656;2024-02-15T08:40:05;14.10;99.90
27544;DHT22;17996;51.056;3.656;2024-02-15T08:42:45;14.10;99.90
27544;DHT22;17996;51.056;3.656;2024-02-15T08:45:12;14.20;99.90
27544;DHT22;17996;51.056;3.656;2024-02-15T08:47:41;14.20;99.90
27544;DHT22;17996;51.056;3.656;2024-02-15T08:50:09;14.30;99.90
27544;DHT22;17996;51.056;3.656;2024-02-15T08:52:37;14.40;99.90
27544;DHT22;17996;51.056;3.656;2024-02-15T08:55:06;14.40;99.90
27544;DHT22;17996;51.056;3.656;2024-02-15T08:57:33;14.50;99.90
27544;DHT22;17996;51.056;3.656;2024-02-15T08:59:59;14.50;99.90
27544;DHT22;17996;51.056;3.656;2024-02-15T09:02:25;14.60;99.90
27544;DHT22;17996;51.056;3.656;2024-02-15T09:04:53;14.60;99.90
27544;DHT22;17996;51.056;3.656;2024-02-15T09:07:19;14.70;99.90
27544;DHT22;17996;51.056;3.656;2024-02-15T09:09:46;14.70;99.90
27544;DHT22;17996;51.056;3.656;2024-02-15T09:12:13;14.80;99.90
27544;DHT22;17996;51.056;3.656;2024-02-15T09:14:40;14.80;99.90
27544;DHT22;17996;51.056;3.656;2024-02-15T09:17:06;14.80;99.90
27544;DHT22;17996;51.056;3.656;2024-02-15T09:19:36;14.90;99.90
27544;DHT22;17996;51.056;3.656;2024-02-15T09:22:05;14.90;99.90
27544;DHT22;17996;51.056;3.656;2024-02-15T09:24:32;15.00;99.90
27544;DHT22;17996;51.056;3.656;2024-02-15T09:27:01;15.10;99.90
27544;DHT22;17996;51.056;3.656;2024-02-15T09:29:28;15.10;99.90
27544;DHT22;17996;51.056;3.656;2024-02-15T09:32:00;15.20;99.90
27544;DHT22;17996;51.056;3.656;2024-02-15T09:34:28;15.20;99.90
27544;DHT22;17996;51.056;3.656;2024-02-15T09:36:54;15.30;99.90
27544;DHT22;17996;51.056;3.656;2024-02-15T09:39:23;15.30;99.90
27544;DHT22;17996;51.056;3.656;2024-02-15T09:41:49;15.40;99.90
27544;DHT22;17996;51.056;3.656;2024-02-15T09:44:24;15.40;99.90
27544;DHT22;17996;51.056;3.656;2024-02-15T09:47:13;15.50;99.90
27544;DHT22;17996;51.056;3.656;2024-02-15T09:49:39;15.50;99.90
27544;DHT22;17996;51.056;3.656;2024-02-15T09:52:06;15.50;99.90
27544;DHT22;17996;51.056;3.656;2024-02-15T09:54:42;15.50;99.90
27544;DHT22;17996;51.056;3.656;2024-02-15T09:57:09;15.60;99.90
27544;DHT22;17996;51.056;3.656;2024-02-15T09:59:38;15.60;99.90
27544;DHT22;17996;51.056;3.656;2024-02-15T10:02:06;15.60;99.90
27544;DHT22;17996;51.056;3.656;2024-02-15T10:04:45;15.70;99.90
27544;DHT22;17996;51.056;3.656;2024-02-15T10:07:13;15.70;99.90
27544;DHT22;17996;51.056;3.656;2024-02-15T10:09:39;15.70;99.90
27544;DHT22;17996;51.056;3.656;2024-02-15T10:12:09;15.70;99.90
27544;DHT22;17996;51.056;3.656;2024-02-15T10:14:35;15.70;99.90
27544;DHT22;17996;51.056;3.656;2024-02-15T10:17:09;15.80;99.90
27544;DHT22;17996;51.056;3.656;2024-02-15T10:19:39;15.80;99.90
27544;DHT22;17996;51.056;3.656;2024-02-15T10:22:07;15.90;99.90
27544;DHT22;17996;51.056;3.656;2024-02-15T10:24:33;16.00;99.90
27544;DHT22;17996;51.056;3.656;2024-02-15T10:27:03;16.20;99.90
27544;DHT22;17996;51.056;3.656;2024-02-15T10:29:33;16.30;99.90
27544;DHT22;17996;51.056;3.656;2024-02-15T10:32:01;16.40;99.90
27544;DHT22;17996;51.056;3.656;2024-02-15T10:34:28;16.40;99.90
27544;DHT22;17996;51.056;3.656;2024-02-15T10:37:12;16.40;99.90
27544;DHT22;17996;51.056;3.656;2024-02-15T10:39:38;16.30;99.90
27544;DHT22;17996;51.056;3.656;2024-02-15T10:42:06;16.30;99.90
27544;DHT22;17996;51.056;3.656;2024-02-15T10:44:33;16.40;99.90
27544;DHT22;17996;51.056;3.656;2024-02-15T10:47:03;16.50;99.90
27544;DHT22;17996;51.056;3.656;2024-02-15T10:49:34;16.60;99.90
27544;DHT22;17996;51.056;3.656;2024-02-15T10:52:01;16.60;99.90
27544;DHT22;17996;51.056;3.656;2024-02-15T10:57:05;16.50;99.90
27544;DHT22;17996;51.056;3.656;2024-02-15T10:59:35;16.40;99.90
27544;DHT22;17996;51.056;3.656;2024-02-15T11:04:54;16.40;99.90
27544;DHT22;17996;51.056;3.656;2024-02-15T11:07:25;16.30;99.90
27544;DHT22;17996;51.056;3.656;2024-02-15T11:09:58;16.30;99.90
27544;DHT22;17996;51.056;3.656;2024-02-15T11:12:25;16.30;99.90
27544;DHT22;17996;51.056;3.656;2024-02-15T11:14:53;16.30;99.90
27544;DHT22;17996;51.056;3.656;2024-02-15T11:20:09;16.20;99.90
27544;DHT22;17996;51.056;3.656;2024-02-15T11:22:37;16.20;99.90
27544;DHT22;17996;51.056;3.656;2024-02-15T11:25:05;16.20;99.90
27544;DHT22;17996;51.056;3.656;2024-02-15T11:27:35;16.20;99.90
27544;DHT22;17996;51.056;3.656;2024-02-15T11:30:03;16.30;99.90
27544;DHT22;17996;51.056;3.656;2024-02-15T11:32:44;16.30;99.90
27544;DHT22;17996;51.056;3.656;2024-02-15T11:35:17;16.40;99.90
27544;DHT22;17996;51.056;3.656;2024-02-15T11:40:18;16.50;99.90
27544;DHT22;17996;51.056;3.656;2024-02-15T11:42:45;16.60;99.90
27544;DHT22;17996;51.056;3.656;2024-02-15T11:45:12;16.80;99.90
27544;DHT22;17996;51.056;3.656;2024-02-15T11:47:39;16.90;99.90
27544;DHT22;17996;51.056;3.656;2024-02-15T11:50:10;17.00;99.90
27544;DHT22;17996;51.056;3.656;2024-02-15T11:52:50;17.20;99.90
27544;DHT22;17996;51.056;3.656;2024-02-15T11:55:21;17.30;99.90
27544;DHT22;17996;51.056;3.656;2024-02-15T11:58:01;17.40;99.90
27544;DHT22;17996;51.056;3.656;2024-02-15T12:00:42;17.50;99.90
27544;DHT22;17996;51.056;3.656;2024-02-15T12:03:27;17.50;99.90
27544;DHT22;17996;51.056;3.656;2024-02-15T12:06:17;17.50;99.90
27544;DHT22;17996;51.056;3.656;2024-02-15T12:09:03;17.40;99.90
27544;DHT22;17996;51.056;3.656;2024-02-15T12:11:47;17.50;99.90
27544;DHT22;17996;51.056;3.656;2024-02-15T12:14:41;17.50;99.90
27544;DHT22;17996;51.056;3.656;2024-02-15T12:17:26;17.60;99.90
27544;DHT22;17996;51.056;3.656;2024-02-15T12:20:10;17.60;99.90
27544;DHT22;17996;51.056;3.656;2024-02-15T12:22:47;17.60;99.90
27544;DHT22;17996;51.056;3.656;2024-02-15T12:25:15;17.70;99.90
27544;DHT22;17996;51.056;3.656;2024-02-15T12:27:42;17.70;99.90
27544;DHT22;17996;51.056;3.656;2024-02-15T12:30:18;17.70;99.90
27544;DHT22;17996;51.056;3.656;2024-02-15T12:32:50;17.70;99.90
27544;DHT22;17996;51.056;3.656;2024-02-15T12:35:21;17.70;99.90
27544;DHT22;17996;51.056;3.656;2024-02-15T12:40:37;17.80;99.90
27544;DHT22;17996;51.056;3.656;2024-02-15T12:43:07;17.80;99.90
27544;DHT22;17996;51.056;3.656;2024-02-15T12:45:39;17.80;99.90
27544;DHT22;17996;51.056;3.656;2024-02-15T12:48:09;17.80;99.90
27544;DHT22;17996;51.056;3.656;2024-02-15T12:50:36;17.90;99.90
27544;DHT22;17996;51.056;3.656;2024-02-15T12:53:04;17.90;99.90
27544;DHT22;17996;51.056;3.656;2024-02-15T12:55:39;17.90;99.90
27544;DHT22;17996;51.056;3.656;2024-02-15T12:58:12;17.90;99.90
27544;DHT22;17996;51.056;3.656;2024-02-15T13:00:39;17.90;99.90
27544;DHT22;17996;51.056;3.656;2024-02-15T13:03:07;17.90;99.90
27544;DHT22;17996;51.056;3.656;2024-02-15T13:05:37;17.90;99.90
27544;DHT22;17996;51.056;3.656;2024-02-15T13:08:03;17.90;99.90
27544;DHT22;17996;51.056;3.656;2024-02-15T13:10:36;17.90;99.90
27544;DHT22;17996;51.056;3.656;2024-02-15T13:13:04;17.90;99.90
27544;DHT22;17996;51.056;3.656;2024-02-15T13:15:31;17.90;99.90
27544;DHT22;17996;51.056;3.656;2024-02-15T13:18:00;17.90;99.90
27544;DHT22;17996;51.056;3.656;2024-02-15T13:20:27;17.90;99.90
27544;DHT22;17996;51.056;3.656;2024-02-15T13:22:59;18.00;99.90
27544;DHT22;17996;51.056;3.656;2024-02-15T13:25:28;18.00;99.90
27544;DHT22;17996;51.056;3.656;2024-02-15T13:27:55;18.00;99.90
27544;DHT22;17996;51.056;3.656;2024-02-15T13:30:23;18.00;99.90
27544;DHT22;17996;51.056;3.656;2024-02-15T13:32:52;18.00;99.90
27544;DHT22;17996;51.056;3.656;2024-02-15T13:35:21;17.90;99.90
27544;DHT22;17996;51.056;3.656;2024-02-15T13:37:53;18.00;99.90
27544;DHT22;17996;51.056;3.656;2024-02-15T13:40:21;17.90;99.90
27544;DHT22;17996;51.056;3.656;2024-02-15T13:42:53;17.90;99.90
27544;DHT22;17996;51.056;3.656;2024-02-15T13:45:22;17.90;99.90
27544;DHT22;17996;51.056;3.656;2024-02-15T13:47:49;17.90;99.90
27544;DHT22;17996;51.056;3.656;2024-02-15T13:50:17;17.90;99.90
27544;DHT22;17996;51.056;3.656;2024-02-15T13:52:44;18.00;99.90
27544;DHT22;17996;51.056;3.656;2024-02-15T13:55:14;17.90;99.90
27544;DHT22;17996;51.056;3.656;2024-02-15T13:57:41;17.90;99.90
27544;DHT22;17996;51.056;3.656;2024-02-15T14:00:11;17.90;99.90
27544;DHT22;17996;51.056;3.656;2024-02-15T14:02:53;17.90;99.90
27544;DHT22;17996;51.056;3.656;2024-02-15T14:05:20;17.90;99.90
27544;DHT22;17996;51.056;3.656;2024-02-15T14:07:55;17.90;99.90
27544;DHT22;17996;51.056;3.656;2024-02-15T14:10:27;17.90;99.90
27544;DHT22;17996;51.056;3.656;2024-02-15T14:12:55;18.00;99.90
27544;DHT22;17996;51.056;3.656;2024-02-15T14:15:21;18.00;99.90
27544;DHT22;17996;51.056;3.656;2024-02-15T14:17:51;18.00;99.90
27544;DHT22;17996;51.056;3.656;2024-02-15T14:20:18;18.00;99.90
27544;DHT22;17996;51.056;3.656;2024-02-15T14:22:46;18.00;99.90
27544;DHT22;17996;51.056;3.656;2024-02-15T14:25:15;18.00;99.90
27544;DHT22;17996;51.056;3.656;2024-02-15T14:27:42;18.00;99.90
27544;DHT22;17996;51.056;3.656;2024-02-15T14:30:10;18.00;99.90
27544;DHT22;17996;51.056;3.656;2024-02-15T14:32:56;17.90;99.90
27544;DHT22;17996;51.056;3.656;2024-02-15T14:35:38;17.90;99.90
27544;DHT22;17996;51.056;3.656;2024-02-15T14:38:11;18.00;99.90
27544;DHT22;17996;51.056;3.656;2024-02-15T14:40:39;18.00;99.90
27544;DHT22;17996;51.056;3.656;2024-02-15T14:43:06;18.00;99.90
27544;DHT22;17996;51.056;3.656;2024-02-15T14:45:33;17.90;99.90
27544;DHT22;17996;51.056;3.656;2024-02-15T14:48:00;17.80;99.90
27544;DHT22;17996;51.056;3.656;2024-02-15T14:50:26;17.70;99.90
27544;DHT22;17996;51.056;3.656;2024-02-15T14:52:52;17.70;99.90
27544;DHT22;17996;51.056;3.656;2024-02-15T14:55:22;17.60;99.90
27544;DHT22;17996;51.056;3.656;2024-02-15T14:57:49;17.50;99.90
27544;DHT22;17996;51.056;3.656;2024-02-15T15:00:15;17.50;99.90
27544;DHT22;17996;51.056;3.656;2024-02-15T15:02:47;17.40;99.90
27544;DHT22;17996;51.056;3.656;2024-02-15T15:05:14;17.40;99.90
27544;DHT22;17996;51.056;3.656;2024-02-15T15:07:58;17.40;99.90
27544;DHT22;17996;51.056;3.656;2024-02-15T15:10:45;17.40;99.90
27544;DHT22;17996;51.056;3.656;2024-02-15T15:13:30;17.30;99.90
27544;DHT22;17996;51.056;3.656;2024-02-15T15:15:57;17.30;99.90
27544;DHT22;17996;51.056;3.656;2024-02-15T15:18:23;17.20;99.90
27544;DHT22;17996;51.056;3.656;2024-02-15T15:20:48;17.20;99.90
27544;DHT22;17996;51.056;3.656;2024-02-15T15:23:16;17.10;99.90
27544;DHT22;17996;51.056;3.656;2024-02-15T15:25:43;17.10;99.90
27544;DHT22;17996;51.056;3.656;2024-02-15T15:28:09;17.10;99.90
27544;DHT22;17996;51.056;3.656;2024-02-15T15:30:36;17.00;99.90
27544;DHT22;17996;51.056;3.656;2024-02-15T15:33:03;17.00;99.90
27544;DHT22;17996;51.056;3.656;2024-02-15T15:35:29;17.00;99.90
27544;DHT22;17996;51.056;3.656;2024-02-15T15:37:58;16.90;99.90
27544;DHT22;17996;51.056;3.656;2024-02-15T15:40:24;16.90;99.90
27544;DHT22;17996;51.056;3.656;2024-02-15T15:42:51;16.90;99.90
27544;DHT22;17996;51.056;3.656;2024-02-15T15:45:18;16.90;99.90
27544;DHT22;17996;51.056;3.656;2024-02-15T15:47:44;16.80;99.90
27544;DHT22;17996;51.056;3.656;2024-02-15T15:50:09;16.80;99.90
27544;DHT22;17996;51.056;3.656;2024-02-15T15:52:38;16.80;99.90
27544;DHT22;17996;51.056;3.656;2024-02-15T15:55:04;16.80;99.90
27544;DHT22;17996;51.056;3.656;2024-02-15T15:57:40;16.70;99.90